Главная страница
METAR-TAF:

METAR-TAF

Аэропорты :

Key Lake, Саскачеван, Канада

широта: 57-15N, долгота: 105-37W, высота над уровнем моря: 509 м

Текущие метеонаблюдения

Эта сводка был подготовлена 36 минут назад, в 04:00 UTC
Ветер 3 Узел от западный
Температура 0°C
Влажность 86%
Давление 1018 hPa
Видимость: 14.5 км
ясное небо

METAR: CYKJ 270400Z AUTO 27003KT 9SM CLR M00/M02 A3007 RMK SLP210

Время: 22:36 (04:36 UTC)

Прогноз

Эта сводка был подготовлена 9 часа и 58 минут назад, в 18:38 UTC
Прогноз действительный с 26-го 19 UTC до 26-го 24 UTC
Ветер 15 Узел от западно-северо-западный с порывами до 25 Узел
Видимость: 10 км
Рассеянная облачность на высоте 3000 фута
временами
С 26-го 19 UTC до 26-го 24 UTC
Рассеянная облачность на высоте 2000 фута

TAF: CYKJ 261838Z 2619/2624 30015G25KT P6SM BKN030 TEMPO 2619/2624 BKN020 RMK FCST BASED ON AUTO OBS. NXT FCST WILL BE ISSUED AT 270945Z

Метеонаблюдения и прогнозы для более 4000 аэропортов (сводки METAR и TAF).

Имеющиеся станции представлены на карте желтыми и красными точками.

Чтобы увидеть название станции, наведите на нее мышь.

Затем щелкните, чтобы увидеть метеонаблюдения и метеопрогнозы.

Управление картой: чтобы увеличить масштаб, щелкните зеленые кнопки с черным крестиком; чтобы уменьшить масштаб, щелкните зеленую кнопку с тире; для просмотра соседних карт щелкайте зеленые стрелки.


METAR-TAF: